Time;durP1;ratioP1;P1;durP2;ratioP2;P2;SDS_P1;SDS_P2;PMS_P1;PMS_P2;Temp;Humidity;BMP_temperature;BMP_pressure;BME280_temperature;BME280_humidity;BME280_pressure;Samples;Min_cycle;Max_cycle;Signal;HPM_P1;HPM_P2
2021/04/28 00:01:03;;;;;;;20.63;12.30;;;22.60;27.20;;;;;;6224192;28;83858;-65
2021/04/28 00:04:03;;;;;;;24.83;12.80;;;22.60;27.50;;;;;;6221890;28;83619;-65
2021/04/28 00:10:42;;;;;;;21.65;12.48;;;22.60;27.20;;;;;;6216965;28;82955;-65
2021/04/28 00:13:43;;;;;;;20.63;11.15;;;22.60;27.30;;;;;;6226318;28;83408;-65
2021/04/28 00:16:43;;;;;;;23.90;12.65;;;22.50;27.30;;;;;;6224997;28;83542;-66
2021/04/28 00:19:44;;;;;;;21.52;12.82;;;22.60;27.00;;;;;;6224957;28;82984;-65
2021/04/28 00:22:44;;;;;;;22.65;11.88;;;22.60;27.20;;;;;;6225186;28;83318;-65
2021/04/28 00:25:45;;;;;;;25.42;12.98;;;22.50;27.00;;;;;;6221113;28;83075;-65
2021/04/28 00:28:45;;;;;;;22.40;12.27;;;22.50;26.80;;;;;;6213808;28;84439;-65
2021/04/28 00:31:46;;;;;;;22.52;11.98;;;22.60;27.10;;;;;;6224609;28;83211;-65
2021/04/28 00:34:46;;;;;;;22.73;12.40;;;22.50;26.90;;;;;;6215076;28;82886;-65
2021/04/28 00:37:47;;;;;;;25.98;12.52;;;22.50;27.20;;;;;;6223003;28;83394;-64
2021/04/28 00:40:47;;;;;;;21.13;12.80;;;22.50;27.20;;;;;;6223514;28;82916;-64
2021/04/28 00:43:48;;;;;;;22.80;12.27;;;22.50;27.10;;;;;;6225314;28;82976;-64
2021/04/28 00:46:48;;;;;;;24.40;13.10;;;22.50;27.20;;;;;;6222840;28;82978;-64
2021/04/28 00:49:49;;;;;;;23.73;11.65;;;22.50;27.00;;;;;;6223156;28;83164;-64
2021/04/28 00:52:49;;;;;;;21.20;12.77;;;22.50;27.00;;;;;;6225072;28;83877;-64
2021/04/28 00:55:50;;;;;;;20.00;12.02;;;22.50;26.90;;;;;;6225795;28;84449;-64
2021/04/28 00:58:50;;;;;;;18.45;11.30;;;22.50;27.10;;;;;;6228219;28;82971;-64
2021/04/28 01:01:51;;;;;;;20.05;12.20;;;22.50;27.20;;;;;;6226357;28;85816;-63
2021/04/28 01:04:53;;;;;;;21.33;12.32;;;22.50;27.00;;;;;;6207253;28;84478;-64
2021/04/28 01:07:54;;;;;;;18.58;10.93;;;22.50;27.10;;;;;;6223729;28;84406;-64
2021/04/28 01:10:55;;;;;;;24.92;12.35;;;22.50;27.10;;;;;;6211221;28;85770;-64
2021/04/28 01:13:56;;;;;;;23.38;12.57;;;22.50;27.00;;;;;;6228629;28;84843;-65
2021/04/28 01:16:56;;;;;;;18.60;12.05;;;22.50;27.00;;;;;;6208804;28;84958;-65
2021/04/28 01:19:57;;;;;;;21.63;11.63;;;22.50;27.00;;;;;;6206465;28;85819;-66
2021/04/28 01:22:57;;;;;;;20.40;11.52;;;22.50;27.50;;;;;;6207076;28;84142;-65
2021/04/28 01:25:58;;;;;;;20.00;11.32;;;22.50;27.00;;;;;;6211549;28;86331;-64
2021/04/28 01:28:59;;;;;;;20.60;11.88;;;22.50;27.20;;;;;;6209298;28;85804;-66
2021/04/28 01:32:00;;;;;;;22.23;12.73;;;22.50;27.10;;;;;;6209024;28;84220;-65
2021/04/28 01:35:00;;;;;;;21.45;12.32;;;22.50;27.10;;;;;;6227123;28;83235;-65
2021/04/28 01:38:01;;;;;;;21.77;12.65;;;22.50;27.20;;;;;;6181954;28;85623;-64
2021/04/28 01:41:02;;;;;;;21.40;12.27;;;22.50;26.90;;;;;;6176833;28;89483;-64
2021/04/28 01:44:04;;;;;;;24.35;12.43;;;22.50;26.80;;;;;;6179548;28;85855;-65
2021/04/28 01:47:06;;;;;;;20.40;12.52;;;22.50;27.60;;;;;;6176696;28;84374;-65
2021/04/28 01:50:06;;;;;;;22.48;11.73;;;22.40;26.80;;;;;;6188051;28;85605;-65
2021/04/28 01:53:08;;;;;;;24.35;13.18;;;22.40;26.80;;;;;;6171887;28;83243;-65
2021/04/28 01:56:09;;;;;;;24.42;13.00;;;22.40;26.70;;;;;;6175650;28;83331;-64
2021/04/28 01:59:28;;;;;;;25.30;12.75;;;22.40;26.80;;;;;;6177205;28;83161;-64
2021/04/28 02:02:32;;;;;;;23.33;13.10;;;22.40;26.60;;;;;;6179113;28;84126;-64
2021/04/28 02:05:33;;;;;;;29.55;13.45;;;22.40;26.60;;;;;;6162575;28;84069;-64
2021/04/28 02:08:35;;;;;;;25.23;12.88;;;22.40;26.60;;;;;;6177580;28;85788;-65
2021/04/28 02:11:36;;;;;;;24.42;13.85;;;22.40;26.70;;;;;;6176829;28;85396;-64
2021/04/28 02:14:41;;;;;;;23.40;11.15;;;22.40;26.60;;;;;;6179266;28;84346;-64
2021/04/28 02:17:53;;;;;;;27.38;13.48;;;22.40;26.50;;;;;;6170221;28;85504;-64
2021/04/28 02:20:54;;;;;;;22.88;12.77;;;22.40;26.50;;;;;;6177388;28;85267;-65
2021/04/28 02:24:15;;;;;;;26.17;12.65;;;22.40;26.40;;;;;;6164306;28;84670;-65
2021/04/28 02:27:16;;;;;;;24.75;11.93;;;22.40;26.70;;;;;;6174365;28;85526;-65
2021/04/28 02:30:18;;;;;;;25.60;12.38;;;22.40;26.60;;;;;;6176591;28;84809;-65
2021/04/28 02:33:18;;;;;;;26.02;13.00;;;22.40;26.60;;;;;;6177270;28;84223;-64
2021/04/28 02:36:38;;;;;;;24.38;12.25;;;22.40;26.90;;;;;;6192277;28;83086;-65
2021/04/28 02:40:07;;;;;;;27.05;13.45;;;22.40;26.50;;;;;;6224681;28;83620;-65
2021/04/28 02:43:08;;;;;;;28.15;13.38;;;22.40;26.40;;;;;;6223420;28;83296;-66
2021/04/28 02:46:11;;;;;;;25.23;12.43;;;22.40;26.60;;;;;;6208731;28;93539;-64
2021/04/28 02:49:15;;;;;;;23.90;13.35;;;22.40;26.50;;;;;;6203822;28;84092;-65
2021/04/28 02:52:35;;;;;;;24.58;12.55;;;22.40;26.50;;;;;;6218902;28;83196;-65
2021/04/28 02:55:36;;;;;;;20.85;12.07;;;22.40;26.60;;;;;;6227608;28;83529;-64
2021/04/28 02:58:37;;;;;;;20.98;12.35;;;22.40;26.70;;;;;;6227220;28;84000;-66
2021/04/28 03:01:42;;;;;;;23.83;13.02;;;22.40;26.70;;;;;;6201147;28;85561;-64
2021/04/28 03:04:43;;;;;;;27.63;12.80;;;22.40;26.60;;;;;;6207610;28;84675;-64
2021/04/28 03:07:53;;;;;;;23.58;11.63;;;22.30;26.80;;;;;;6222825;28;85447;-64
2021/04/28 03:10:54;;;;;;;22.17;11.80;;;22.30;26.60;;;;;;6208431;28;85173;-64
2021/04/28 03:13:54;;;;;;;21.95;12.57;;;22.30;26.80;;;;;;6225050;28;84207;-64
2021/04/28 03:16:55;;;;;;;23.02;12.90;;;22.30;26.60;;;;;;6207131;28;87076;-64
2021/04/28 03:19:56;;;;;;;23.10;12.10;;;22.30;26.40;;;;;;6207493;28;84377;-64
2021/04/28 03:23:00;;;;;;;22.27;11.80;;;22.30;26.60;;;;;;6206943;28;83397;-64
2021/04/28 03:26:01;;;;;;;22.80;12.05;;;22.30;26.40;;;;;;6207103;28;85641;-64
2021/04/28 03:29:01;;;;;;;22.25;13.13;;;22.30;26.30;;;;;;6211396;28;83660;-64
2021/04/28 03:32:02;;;;;;;23.02;12.48;;;22.30;26.30;;;;;;6207887;28;84067;-65
2021/04/28 03:35:03;;;;;;;24.00;12.68;;;22.30;26.30;;;;;;6219204;28;82948;-65
2021/04/28 03:38:03;;;;;;;26.73;12.95;;;22.30;26.30;;;;;;6207185;28;85832;-64
2021/04/28 03:41:04;;;;;;;26.40;12.90;;;22.30;26.60;;;;;;6214475;28;84232;-65
2021/04/28 03:44:05;;;;;;;21.92;11.68;;;22.30;26.30;;;;;;6208230;28;85871;-65
2021/04/28 03:47:06;;;;;;;22.38;12.57;;;22.30;26.50;;;;;;6208018;28;85818;-65
2021/04/28 03:50:10;;;;;;;21.73;12.50;;;22.30;26.50;;;;;;6224140;28;85995;-65
2021/04/28 03:53:16;;;;;;;21.77;12.70;;;22.30;26.30;;;;;;6208702;28;83642;-65
2021/04/28 03:56:20;;;;;;;23.15;13.07;;;22.30;26.60;;;;;;6222489;28;84305;-65
2021/04/28 03:59:21;;;;;;;20.35;12.35;;;22.30;26.40;;;;;;6209077;28;85544;-65
2021/04/28 04:02:30;;;;;;;24.77;12.63;;;22.30;26.50;;;;;;6207959;28;85276;-64
2021/04/28 04:05:50;;;;;;;22.20;12.05;;;22.30;26.60;;;;;;6226300;28;84103;-64
2021/04/28 04:09:13;;;;;;;22.23;11.20;;;22.30;26.70;;;;;;6223736;28;83325;-64
2021/04/28 04:12:17;;;;;;;19.30;11.02;;;22.30;27.30;;;;;;6205379;28;85608;-62
2021/04/28 04:15:23;;;;;;;23.27;11.43;;;22.30;27.10;;;;;;6208435;28;86082;-62
2021/04/28 04:18:24;;;;;;;20.63;11.55;;;22.30;27.30;;;;;;6208367;28;85184;-63
2021/04/28 04:21:33;;;;;;;23.08;11.93;;;22.30;27.40;;;;;;6186025;28;84833;-63
2021/04/28 04:24:46;;;;;;;23.20;11.80;;;22.30;27.60;;;;;;6208934;28;85781;-64
2021/04/28 04:27:48;;;;;;;22.67;11.63;;;22.30;27.80;;;;;;6206060;28;86178;-63
2021/04/28 04:30:51;;;;;;;21.63;11.95;;;22.30;27.70;;;;;;6228190;28;83385;-63
2021/04/28 04:34:09;;;;;;;25.15;11.95;;;22.30;27.90;;;;;;6236541;28;82793;-63
2021/04/28 04:37:33;;;;;;;22.40;11.20;;;22.30;27.90;;;;;;6209103;28;88458;-63
2021/04/28 04:40:52;;;;;;;22.15;11.43;;;22.30;28.30;;;;;;6232012;28;84155;-64
2021/04/28 04:44:18;;;;;;;23.15;12.20;;;22.40;28.00;;;;;;6210885;28;86041;-63
2021/04/28 04:47:22;;;;;;;27.65;12.88;;;22.40;28.40;;;;;;6232310;28;83943;-63
2021/04/28 04:50:22;;;;;;;28.83;12.57;;;22.40;28.50;;;;;;6231444;28;85876;-64
2021/04/28 04:53:23;;;;;;;24.80;12.18;;;22.40;28.40;;;;;;6234342;28;83158;-64
2021/04/28 04:56:23;;;;;;;25.02;12.48;;;22.40;28.60;;;;;;6230272;28;83360;-64
2021/04/28 04:59:25;;;;;;;26.40;13.50;;;22.40;28.90;;;;;;6232852;28;83148;-63
2021/04/28 05:02:25;;;;;;;26.10;13.35;;;22.40;28.80;;;;;;6234095;28;83950;-63
2021/04/28 05:05:26;;;;;;;27.88;12.63;;;22.40;29.20;;;;;;6240502;28;85547;-63
2021/04/28 05:08:26;;;;;;;28.27;13.20;;;22.40;29.70;;;;;;6226151;28;82805;-63
2021/04/28 05:11:27;;;;;;;27.90;13.82;;;22.40;28.30;;;;;;6228704;28;83344;-64
2021/04/28 05:14:27;;;;;;;25.67;12.45;;;22.50;28.20;;;;;;6230016;28;83037;-65
2021/04/28 05:17:28;;;;;;;23.23;11.93;;;22.50;28.40;;;;;;6232319;28;84332;-64
2021/04/28 05:20:28;;;;;;;26.17;13.15;;;22.60;29.20;;;;;;6231250;28;83148;-62
2021/04/28 05:23:29;;;;;;;21.45;12.75;;;22.60;29.40;;;;;;6233256;28;83141;-63
2021/04/28 05:26:48;;;;;;;24.17;12.73;;;22.60;29.50;;;;;;6237667;28;83187;-63
2021/04/28 05:29:48;;;;;;;25.38;11.57;;;22.60;29.40;;;;;;6230607;28;86834;-64
2021/04/28 05:32:49;;;;;;;23.95;11.95;;;22.60;30.20;;;;;;6233499;28;83215;-63
2021/04/28 05:35:50;;;;;;;21.08;11.60;;;22.70;29.10;;;;;;6208347;28;84732;-64
2021/04/28 05:38:50;;;;;;;22.55;11.73;;;22.70;28.40;;;;;;6213178;28;83025;-64
2021/04/28 05:41:52;;;;;;;24.05;11.95;;;22.70;28.90;;;;;;6233951;28;83929;-65
2021/04/28 05:44:52;;;;;;;22.13;10.77;;;22.60;28.70;;;;;;6230475;28;83763;-62
2021/04/28 05:47:53;;;;;;;22.73;11.70;;;22.70;29.00;;;;;;6229240;28;83282;-63
2021/04/28 05:50:54;;;;;;;21.55;11.65;;;22.60;29.50;;;;;;6229207;28;91917;-63
2021/04/28 05:53:55;;;;;;;20.48;10.95;;;22.60;29.20;;;;;;6208594;28;85938;-65
2021/04/28 05:56:56;;;;;;;21.33;11.40;;;22.70;29.30;;;;;;6230509;28;83420;-64
2021/04/28 05:59:56;;;;;;;21.58;10.93;;;22.70;29.00;;;;;;6229697;28;83065;-64
2021/04/28 06:02:57;;;;;;;19.90;10.75;;;22.70;29.70;;;;;;6226526;28;83351;-64
2021/04/28 06:05:57;;;;;;;20.65;11.57;;;22.60;29.30;;;;;;6229510;28;83140;-64
2021/04/28 06:08:58;;;;;;;22.42;11.20;;;22.60;29.50;;;;;;6237928;28;84021;-65
2021/04/28 06:11:58;;;;;;;21.88;9.93;;;22.60;29.10;;;;;;6230057;28;84102;-64
2021/04/28 06:14:59;;;;;;;25.15;12.05;;;22.60;28.90;;;;;;6231833;28;83472;-62
2021/04/28 06:17:59;;;;;;;19.10;10.27;;;22.60;29.00;;;;;;6234542;28;82994;-64
2021/04/28 06:21:00;;;;;;;17.90;10.02;;;22.60;29.10;;;;;;6227316;28;88624;-63
2021/04/28 06:24:03;;;;;;;19.30;10.25;;;22.60;28.90;;;;;;6226286;28;83488;-66
2021/04/28 06:27:04;;;;;;;18.88;11.18;;;22.60;28.80;;;;;;6230843;28;83240;-65
2021/04/28 06:30:04;;;;;;;18.10;9.82;;;22.60;29.10;;;;;;6236113;28;84341;-63
2021/04/28 06:33:05;;;;;;;20.67;9.80;;;22.60;29.30;;;;;;6229802;28;82752;-65
2021/04/28 06:36:05;;;;;;;19.73;9.70;;;22.60;28.90;;;;;;6236998;27;80376;-63
2021/04/28 06:39:06;;;;;;;21.90;10.35;;;22.60;29.10;;;;;;6229686;28;80270;-61
2021/04/28 06:42:07;;;;;;;21.15;9.75;;;22.60;29.40;;;;;;6217650;28;83739;-64
2021/04/28 06:45:07;;;;;;;18.73;9.80;;;22.60;28.90;;;;;;6230830;28;82914;-64
2021/04/28 06:48:08;;;;;;;16.45;9.05;;;22.60;29.20;;;;;;6237265;28;81216;-64
2021/04/28 06:51:08;;;;;;;25.27;11.25;;;22.60;28.70;;;;;;6211624;28;80943;-65
2021/04/28 06:54:09;;;;;;;19.15;9.80;;;22.70;29.00;;;;;;6223285;28;84894;-64
2021/04/28 06:57:09;;;;;;;18.02;9.63;;;22.70;29.30;;;;;;6231372;28;82990;-64
2021/04/28 07:00:10;;;;;;;16.88;10.30;;;22.70;28.90;;;;;;6237233;28;81030;-64
2021/04/28 07:03:10;;;;;;;23.35;10.77;;;22.70;28.80;;;;;;6222437;28;83025;-64
2021/04/28 07:06:11;;;;;;;18.17;9.93;;;22.70;28.40;;;;;;6241746;28;83016;-64
2021/04/28 07:09:12;;;;;;;19.83;10.77;;;22.70;28.30;;;;;;6226658;28;83713;-63
2021/04/28 07:12:12;;;;;;;19.38;9.68;;;22.70;29.50;;;;;;6228750;28;82804;-64
2021/04/28 07:15:13;;;;;;;17.08;9.88;;;22.70;28.50;;;;;;6223525;28;82726;-63
2021/04/28 07:18:13;;;;;;;21.70;9.77;;;22.70;28.30;;;;;;6234949;28;82267;-64
2021/04/28 07:21:14;;;;;;;21.20;9.63;;;22.70;28.30;;;;;;6231138;28;80983;-63
2021/04/28 07:24:15;;;;;;;16.75;9.15;;;22.70;28.40;;;;;;6228964;28;80540;-64
2021/04/28 07:27:15;;;;;;;17.30;9.13;;;22.70;28.50;;;;;;6228284;28;81198;-64
2021/04/28 07:30:16;;;;;;;17.45;9.45;;;22.70;28.40;;;;;;6211661;28;83130;-64
2021/04/28 07:33:16;;;;;;;21.95;9.45;;;22.70;28.60;;;;;;6233054;28;81976;-64
2021/04/28 07:36:17;;;;;;;20.60;9.40;;;22.80;28.00;;;;;;6232585;28;81314;-63
2021/04/28 07:39:17;;;;;;;19.80;8.85;;;22.80;27.70;;;;;;6222311;28;80310;-64
2021/04/28 07:42:18;;;;;;;25.40;9.68;;;22.70;27.80;;;;;;6210063;28;90433;-63
2021/04/28 07:45:18;;;;;;;13.90;7.57;;;22.80;27.90;;;;;;6223714;28;80510;-64
2021/04/28 07:48:19;;;;;;;15.00;8.45;;;22.80;27.80;;;;;;6231437;28;81932;-64
2021/04/28 07:51:19;;;;;;;16.35;8.57;;;22.80;28.00;;;;;;6231974;28;80559;-63
2021/04/28 07:54:20;;;;;;;13.88;8.45;;;22.70;27.90;;;;;;6235291;28;80562;-65
2021/04/28 07:57:20;;;;;;;14.90;7.75;;;22.80;27.80;;;;;;6231007;28;82104;-64
2021/04/28 08:00:21;;;;;;;14.57;7.55;;;22.70;27.90;;;;;;6245100;28;80915;-65
2021/04/28 08:03:21;;;;;;;16.45;8.52;;;22.70;27.90;;;;;;6225249;28;80492;-65
2021/04/28 08:06:22;;;;;;;14.90;7.53;;;22.80;27.90;;;;;;6235007;28;81365;-63
2021/04/28 08:09:22;;;;;;;16.58;7.93;;;22.80;28.50;;;;;;6224946;28;80745;-63
2021/04/28 08:12:23;;;;;;;16.38;8.50;;;22.80;28.00;;;;;;6234287;28;80568;-63
2021/04/28 08:15:24;;;;;;;14.20;7.60;;;22.80;28.00;;;;;;6225250;28;80409;-64
2021/04/28 08:18:24;;;;;;;14.85;7.55;;;22.80;28.40;;;;;;6233940;28;81013;-63
2021/04/28 08:21:25;;;;;;;19.70;8.55;;;22.80;28.60;;;;;;6228310;28;80717;-63
2021/04/28 08:24:25;;;;;;;12.73;7.05;;;22.80;29.20;;;;;;6238360;28;80419;-62
2021/04/28 08:27:26;;;;;;;13.48;7.10;;;22.80;29.30;;;;;;6220536;28;81618;-61
2021/04/28 08:30:26;;;;;;;14.15;7.07;;;22.80;29.10;;;;;;6210283;28;82951;-62
2021/04/28 08:33:27;;;;;;;16.02;7.95;;;22.80;28.20;;;;;;6226932;28;80770;-63
2021/04/28 08:36:27;;;;;;;18.73;8.05;;;22.70;28.20;;;;;;6235015;28;80285;-63
2021/04/28 08:39:28;;;;;;;19.45;8.02;;;22.70;28.30;;;;;;6241707;28;80427;-63
2021/04/28 08:42:28;;;;;;;15.25;6.97;;;22.70;27.80;;;;;;6229879;28;80403;-62
2021/04/28 08:45:29;;;;;;;17.17;8.07;;;22.70;28.70;;;;;;6231111;28;81035;-62
2021/04/28 08:48:29;;;;;;;14.43;6.85;;;22.70;28.90;;;;;;6213154;28;83288;-62
2021/04/28 08:51:30;;;;;;;10.90;7.05;;;22.70;27.70;;;;;;6228394;28;80619;-63
2021/04/28 08:54:30;;;;;;;12.60;6.90;;;22.60;27.70;;;;;;6234923;28;80337;-63
2021/04/28 08:57:31;;;;;;;16.27;6.75;;;22.60;27.90;;;;;;6227313;28;80619;-63
2021/04/28 09:00:31;;;;;;;14.88;6.95;;;22.60;27.90;;;;;;6228386;28;81737;-63
2021/04/28 09:03:32;;;;;;;11.65;6.38;;;22.60;27.70;;;;;;6236213;28;81157;-63
2021/04/28 09:06:32;;;;;;;12.18;6.43;;;22.60;27.20;;;;;;6232907;28;81381;-63
2021/04/28 09:09:33;;;;;;;14.20;6.85;;;22.60;27.10;;;;;;6231329;28;81539;-64
2021/04/28 09:12:34;;;;;;;17.75;6.95;;;22.60;27.40;;;;;;6230981;28;80663;-63
2021/04/28 09:15:34;;;;;;;11.10;6.13;;;22.60;26.90;;;;;;6230800;28;80663;-62
2021/04/28 09:18:35;;;;;;;10.30;5.40;;;22.50;26.70;;;;;;6235188;28;81031;-63
2021/04/28 09:21:56;;;;;;;12.93;6.88;;;22.60;26.60;;;;;;6233710;28;80360;-63
2021/04/28 09:25:15;;;;;;;10.00;5.70;;;22.60;26.80;;;;;;6240107;28;81136;-63
2021/04/28 09:28:35;;;;;;;10.98;5.55;;;22.60;26.40;;;;;;6230699;28;84579;-61
2021/04/28 09:31:37;;;;;;;11.77;5.65;;;22.50;26.00;;;;;;6228031;28;81739;-62
2021/04/28 09:34:38;;;;;;;14.90;6.32;;;22.50;26.60;;;;;;6215268;28;80441;-63
2021/04/28 09:37:38;;;;;;;9.98;5.82;;;22.50;26.60;;;;;;6184555;28;81731;-62
2021/04/28 09:40:39;;;;;;;13.57;5.55;;;22.50;26.90;;;;;;6187384;28;82779;-63
2021/04/28 09:43:40;;;;;;;10.43;5.97;;;22.60;27.10;;;;;;6184123;28;81043;-63
2021/04/28 09:46:40;;;;;;;10.95;5.47;;;22.60;26.80;;;;;;6196298;28;80701;-63
2021/04/28 09:49:41;;;;;;;11.25;6.00;;;22.60;26.90;;;;;;6195245;28;80648;-63
2021/04/28 09:52:44;;;;;;;12.57;5.43;;;22.60;27.20;;;;;;6194851;28;80416;-63
2021/04/28 09:55:44;;;;;;;7.20;4.43;;;22.60;27.30;;;;;;6182600;28;80716;-63
2021/04/28 09:58:45;;;;;;;7.85;4.47;;;22.60;27.50;;;;;;6192344;28;83366;-63
2021/04/28 10:01:45;;;;;;;9.25;4.78;;;22.60;27.80;;;;;;6189641;28;80815;-63
2021/04/28 10:04:46;;;;;;;8.25;4.93;;;22.60;28.30;;;;;;6196177;28;80298;-64
2021/04/28 10:07:46;;;;;;;7.13;4.45;;;22.70;29.20;;;;;;6196250;28;81922;-64
2021/04/28 10:10:47;;;;;;;8.77;4.88;;;22.70;29.00;;;;;;6190027;28;80551;-63
2021/04/28 10:13:47;;;;;;;8.65;4.00;;;22.70;29.60;;;;;;6179986;28;81695;-63
2021/04/28 10:16:48;;;;;;;12.77;3.65;;;22.80;29.00;;;;;;6191013;28;81222;-63
2021/04/28 10:19:49;;;;;;;6.78;4.10;;;22.80;30.00;;;;;;6181796;28;80380;-63
2021/04/28 10:22:49;;;;;;;7.10;3.85;;;22.80;29.70;;;;;;6177283;28;80753;-63
2021/04/28 10:25:50;;;;;;;9.05;4.13;;;22.80;29.40;;;;;;6179238;28;81115;-62
2021/04/28 10:28:50;;;;;;;6.85;4.25;;;22.80;29.40;;;;;;6183395;28;81084;-63
2021/04/28 10:31:51;;;;;;;8.50;3.55;;;22.80;29.10;;;;;;6178842;28;80436;-63
2021/04/28 10:34:51;;;;;;;4.82;3.38;;;22.80;28.60;;;;;;6186138;28;80643;-63
2021/04/28 10:37:52;;;;;;;7.68;3.55;;;22.80;28.20;;;;;;6213512;28;80512;-63
2021/04/28 10:40:52;;;;;;;5.88;3.40;;;22.80;28.50;;;;;;6233396;28;80301;-62
2021/04/28 10:43:53;;;;;;;5.93;3.47;;;22.80;27.70;;;;;;6240334;28;81171;-63
2021/04/28 10:46:53;;;;;;;6.45;3.67;;;22.80;27.50;;;;;;6235228;28;80402;-62
2021/04/28 10:49:54;;;;;;;5.03;3.25;;;22.70;27.50;;;;;;6236165;28;80799;-63
2021/04/28 10:52:59;;;;;;;7.13;4.07;;;22.80;26.90;;;;;;6235108;28;81246;-60
2021/04/28 10:55:59;;;;;;;6.10;3.88;;;22.70;27.00;;;;;;6241093;28;81242;-63
2021/04/28 10:59:00;;;;;;;6.40;3.75;;;22.70;26.70;;;;;;6214282;28;82149;-63
2021/04/28 11:02:00;;;;;;;7.68;3.45;;;22.80;26.70;;;;;;6218162;28;80380;-64
2021/04/28 11:05:01;;;;;;;4.63;3.25;;;22.80;26.60;;;;;;6225079;28;80522;-63
2021/04/28 11:08:02;;;;;;;10.02;4.50;;;22.80;26.60;;;;;;6236215;28;80430;-64
2021/04/28 11:11:02;;;;;;;6.63;3.45;;;22.80;26.50;;;;;;6226363;28;80536;-64
2021/04/28 11:14:03;;;;;;;7.82;3.92;;;22.80;26.40;;;;;;6235746;28;80610;-64
2021/04/28 11:17:03;;;;;;;7.80;3.58;;;22.80;26.40;;;;;;6233211;28;80307;-63
2021/04/28 11:20:04;;;;;;;8.07;3.25;;;22.80;26.30;;;;;;6210785;28;83628;-64
2021/04/28 11:23:04;;;;;;;5.03;3.28;;;22.80;26.50;;;;;;6231623;28;81280;-64
2021/04/28 11:26:05;;;;;;;6.75;4.00;;;22.80;26.70;;;;;;6210563;28;83015;-65
2021/04/28 11:29:06;;;;;;;8.70;3.60;;;22.80;26.00;;;;;;6209501;28;82040;-65
2021/04/28 11:32:06;;;;;;;6.32;3.53;;;22.80;26.00;;;;;;6235415;28;80370;-64
2021/04/28 11:35:07;;;;;;;5.47;3.08;;;22.80;25.80;;;;;;6236940;28;80596;-63
2021/04/28 11:38:08;;;;;;;10.88;3.22;;;22.80;25.80;;;;;;6234103;27;81705;-64
2021/04/28 11:41:10;;;;;;;7.32;3.53;;;22.80;25.90;;;;;;6211697;28;80466;-64
2021/04/28 11:44:11;;;;;;;6.78;3.35;;;22.80;26.00;;;;;;6233523;28;80607;-64
2021/04/28 11:47:11;;;;;;;6.10;3.75;;;22.80;25.80;;;;;;6236190;28;80602;-64
2021/04/28 11:50:12;;;;;;;9.52;3.90;;;22.80;25.40;;;;;;6230271;28;80673;-64
2021/04/28 11:53:12;;;;;;;7.93;3.10;;;22.80;25.30;;;;;;6211297;28;80701;-65
2021/04/28 11:56:13;;;;;;;6.72;3.42;;;22.80;25.90;;;;;;6226056;28;82063;-65
2021/04/28 11:59:13;;;;;;;6.93;3.38;;;22.90;25.60;;;;;;6225406;28;80602;-64
2021/04/28 12:02:14;;;;;;;7.05;3.75;;;22.80;25.70;;;;;;6226433;28;80376;-65
2021/04/28 12:05:14;;;;;;;4.95;2.90;;;22.80;25.80;;;;;;6240270;28;80886;-64
2021/04/28 12:08:15;;;;;;;8.27;3.70;;;22.80;25.90;;;;;;6233768;28;81312;-63
2021/04/28 12:11:15;;;;;;;7.60;3.25;;;22.80;25.70;;;;;;6234092;28;80846;-63
2021/04/28 12:14:16;;;;;;;12.27;3.70;;;22.80;25.40;;;;;;6222437;28;80447;-65
2021/04/28 12:17:17;;;;;;;4.60;3.38;;;22.80;25.60;;;;;;6227564;28;80792;-64
2021/04/28 12:20:17;;;;;;;5.57;3.58;;;22.80;25.50;;;;;;6212426;28;80993;-63
2021/04/28 12:23:18;;;;;;;7.38;3.40;;;22.80;25.20;;;;;;6161230;28;81798;-65
2021/04/28 12:26:18;;;;;;;3.97;3.08;;;22.80;25.20;;;;;;6205254;28;81068;-64
2021/04/28 12:29:19;;;;;;;6.45;3.50;;;22.80;25.90;;;;;;6224845;28;81423;-65
2021/04/28 12:32:19;;;;;;;7.43;3.20;;;22.80;25.60;;;;;;6211859;28;81860;-67
2021/04/28 12:35:20;;;;;;;5.45;3.80;;;22.90;25.70;;;;;;6214732;28;83190;-67
2021/04/28 12:38:20;;;;;;;7.07;3.47;;;22.80;25.30;;;;;;6210363;28;83711;-64
2021/04/28 12:41:21;;;;;;;5.63;3.20;;;22.90;25.30;;;;;;6230489;28;80444;-64
2021/04/28 12:44:21;;;;;;;6.72;3.25;;;22.80;25.30;;;;;;6232649;28;80358;-64
2021/04/28 12:47:22;;;;;;;11.52;3.45;;;22.90;25.10;;;;;;6236968;28;80661;-64
2021/04/28 12:50:26;;;;;;;5.95;3.20;;;22.80;26.00;;;;;;6223248;28;83742;-64
2021/04/28 12:53:27;;;;;;;6.55;3.58;;;22.90;26.20;;;;;;6241305;28;80899;-64
2021/04/28 12:56:27;;;;;;;4.63;3.38;;;22.90;25.90;;;;;;6246281;28;89879;-64
2021/04/28 12:59:28;;;;;;;7.80;3.70;;;22.90;25.60;;;;;;6210714;28;80379;-64
2021/04/28 13:02:28;;;;;;;3.75;3.00;;;22.90;26.00;;;;;;6224594;28;81991;-64
2021/04/28 13:05:29;;;;;;;7.25;3.65;;;23.00;26.40;;;;;;6216720;28;83220;-62
2021/04/28 13:08:29;;;;;;;6.57;3.40;;;23.00;27.10;;;;;;6236372;28;81625;-62
2021/04/28 13:11:32;;;;;;;6.95;3.33;;;23.00;27.20;;;;;;6232116;27;80494;-62
2021/04/28 13:14:33;;;;;;;4.85;3.10;;;23.00;26.90;;;;;;6230921;28;81107;-64
2021/04/28 13:17:33;;;;;;;6.82;3.10;;;23.00;26.90;;;;;;6228396;28;80718;-62
2021/04/28 13:20:34;;;;;;;7.43;3.85;;;23.00;26.70;;;;;;6230622;28;81019;-62
2021/04/28 13:23:34;;;;;;;4.78;3.58;;;23.00;26.60;;;;;;6228545;28;81723;-62
2021/04/28 13:26:35;;;;;;;4.82;3.00;;;23.00;26.30;;;;;;6230173;28;80571;-62
2021/04/28 13:29:35;;;;;;;5.45;3.47;;;23.00;26.40;;;;;;6227980;28;80387;-61
2021/04/28 13:32:36;;;;;;;8.60;3.72;;;23.00;26.80;;;;;;6232473;28;80941;-60
2021/04/28 13:35:37;;;;;;;5.47;3.60;;;23.00;26.90;;;;;;6228120;28;81445;-59
2021/04/28 13:38:37;;;;;;;6.85;3.53;;;23.00;27.00;;;;;;6217820;28;81611;-59
2021/04/28 13:41:38;;;;;;;9.63;3.55;;;23.00;26.50;;;;;;6216011;28;83572;-61
2021/04/28 13:44:39;;;;;;;7.70;3.97;;;23.00;26.40;;;;;;6231030;28;80603;-62
2021/04/28 13:47:40;;;;;;;6.38;3.25;;;23.00;25.90;;;;;;6224016;28;81319;-61
2021/04/28 13:50:41;;;;;;;6.10;3.58;;;23.00;26.50;;;;;;6208837;28;80312;-62
2021/04/28 13:53:41;;;;;;;8.60;3.15;;;23.00;26.70;;;;;;6232511;28;80361;-62
2021/04/28 13:56:42;;;;;;;6.82;3.50;;;23.00;26.70;;;;;;6231632;28;81296;-63
2021/04/28 13:59:42;;;;;;;6.07;3.85;;;23.00;26.70;;;;;;6225193;28;80660;-63
2021/04/28 14:02:43;;;;;;;7.38;3.55;;;23.00;26.40;;;;;;6234697;28;80359;-63
2021/04/28 14:05:43;;;;;;;7.30;3.92;;;23.10;26.40;;;;;;6210891;28;81782;-64
2021/04/28 14:08:44;;;;;;;9.85;3.78;;;23.10;26.50;;;;;;6236461;28;80347;-62
2021/04/28 14:11:44;;;;;;;7.45;4.20;;;23.10;26.30;;;;;;6221300;28;81265;-62
2021/04/28 14:14:45;;;;;;;4.70;3.40;;;23.10;26.40;;;;;;6238877;28;80997;-62
2021/04/28 14:17:45;;;;;;;6.75;3.85;;;23.00;26.00;;;;;;6230103;28;80592;-63
2021/04/28 14:20:46;;;;;;;6.85;3.53;;;23.00;26.30;;;;;;6217948;28;80206;-64
2021/04/28 14:23:47;;;;;;;7.30;4.18;;;23.00;26.20;;;;;;6216239;28;81381;-61
2021/04/28 14:26:47;;;;;;;8.70;4.22;;;23.00;25.90;;;;;;6219091;28;81620;-61
2021/04/28 14:29:48;;;;;;;6.22;4.25;;;23.00;26.20;;;;;;6229289;28;80249;-62
2021/04/28 14:32:49;;;;;;;11.50;3.83;;;23.00;26.30;;;;;;6233156;28;80245;-63
2021/04/28 14:35:50;;;;;;;7.47;3.90;;;23.00;26.20;;;;;;6232532;28;80426;-63
2021/04/28 14:38:51;;;;;;;6.10;3.33;;;23.00;26.10;;;;;;6234765;28;81996;-64
2021/04/28 14:41:51;;;;;;;9.25;3.95;;;23.00;26.30;;;;;;6234877;28;80565;-64
2021/04/28 14:44:52;;;;;;;12.93;3.80;;;23.10;26.70;;;;;;6210820;28;83392;-64
2021/04/28 14:47:52;;;;;;;6.95;4.38;;;23.00;26.60;;;;;;6211108;28;81388;-63
2021/04/28 14:50:55;;;;;;;7.82;4.13;;;23.00;26.70;;;;;;6234211;28;80579;-63
2021/04/28 14:53:56;;;;;;;10.63;4.30;;;23.00;26.60;;;;;;6226368;28;80921;-64
2021/04/28 14:56:56;;;;;;;7.35;4.30;;;23.00;26.40;;;;;;6232950;28;80808;-64
2021/04/28 14:59:57;;;;;;;5.97;3.92;;;23.00;26.60;;;;;;6217764;28;82137;-63
2021/04/28 15:02:57;;;;;;;7.88;4.30;;;23.00;26.80;;;;;;6233340;27;80647;-64
2021/04/28 15:05:58;;;;;;;12.52;3.63;;;23.10;26.70;;;;;;6241798;28;80657;-64
2021/04/28 15:08:58;;;;;;;8.13;4.03;;;23.10;26.70;;;;;;6240468;28;80304;-64
2021/04/28 15:11:59;;;;;;;8.77;3.63;;;23.10;26.90;;;;;;6229223;28;81042;-64
2021/04/28 15:14:59;;;;;;;6.75;4.22;;;23.10;26.80;;;;;;6234946;28;80439;-63
2021/04/28 15:18:00;;;;;;;6.38;4.00;;;23.00;26.70;;;;;;6236403;28;82628;-64
2021/04/28 15:21:00;;;;;;;9.27;3.80;;;23.00;26.70;;;;;;6220051;28;80307;-63
2021/04/28 15:24:01;;;;;;;7.75;4.00;;;23.00;26.60;;;;;;6235573;28;81201;-64
2021/04/28 15:27:02;;;;;;;6.25;4.18;;;23.00;26.70;;;;;;6234830;28;80532;-63
2021/04/28 15:30:02;;;;;;;6.05;3.75;;;23.00;26.70;;;;;;6232634;28;80519;-62
2021/04/28 15:33:03;;;;;;;10.15;3.95;;;23.00;26.80;;;;;;6184068;28;81072;-63
2021/04/28 15:36:03;;;;;;;11.07;4.45;;;23.00;27.20;;;;;;6243328;28;80243;-63